sensor_id;sensor_type;location;lat;lon;timestamp;P1;durP1;ratioP1;P2;durP2;ratioP2
22332;SDS011;11334;36.986;-121.936;2023-02-07T00:01:16;9.05;;;2.20;;
22332;SDS011;11334;36.986;-121.936;2023-02-07T00:03:44;5.15;;;1.92;;
22332;SDS011;11334;36.986;-121.936;2023-02-07T00:06:12;5.90;;;2.00;;
22332;SDS011;11334;36.986;-121.936;2023-02-07T00:08:40;7.30;;;2.42;;
22332;SDS011;11334;36.986;-121.936;2023-02-07T00:11:08;10.48;;;2.28;;
22332;SDS011;11334;36.986;-121.936;2023-02-07T00:13:37;9.25;;;2.83;;
22332;SDS011;11334;36.986;-121.936;2023-02-07T00:16:04;8.40;;;2.47;;
22332;SDS011;11334;36.986;-121.936;2023-02-07T00:18:31;8.82;;;1.92;;
22332;SDS011;11334;36.986;-121.936;2023-02-07T00:21:02;8.18;;;2.20;;
22332;SDS011;11334;36.986;-121.936;2023-02-07T00:23:31;9.38;;;2.25;;
22332;SDS011;11334;36.986;-121.936;2023-02-07T00:25:57;7.50;;;2.10;;
22332;SDS011;11334;36.986;-121.936;2023-02-07T00:28:24;6.60;;;1.60;;
22332;SDS011;11334;36.986;-121.936;2023-02-07T00:30:50;8.07;;;1.80;;
22332;SDS011;11334;36.986;-121.936;2023-02-07T00:33:36;5.13;;;1.63;;
22332;SDS011;11334;36.986;-121.936;2023-02-07T00:36:04;11.73;;;1.90;;
22332;SDS011;11334;36.986;-121.936;2023-02-07T00:38:31;9.57;;;2.10;;
22332;SDS011;11334;36.986;-121.936;2023-02-07T00:40:58;7.03;;;2.20;;
22332;SDS011;11334;36.986;-121.936;2023-02-07T00:43:26;5.28;;;1.38;;
22332;SDS011;11334;36.986;-121.936;2023-02-07T00:45:54;6.30;;;1.80;;
22332;SDS011;11334;36.986;-121.936;2023-02-07T00:48:21;5.00;;;1.55;;
22332;SDS011;11334;36.986;-121.936;2023-02-07T00:50:48;7.22;;;1.40;;
22332;SDS011;11334;36.986;-121.936;2023-02-07T00:53:14;6.25;;;1.50;;
22332;SDS011;11334;36.986;-121.936;2023-02-07T00:55:40;5.45;;;1.90;;
22332;SDS011;11334;36.986;-121.936;2023-02-07T00:58:06;5.47;;;1.88;;
22332;SDS011;11334;36.986;-121.936;2023-02-07T01:00:32;7.95;;;2.05;;
22332;SDS011;11334;36.986;-121.936;2023-02-07T01:02:59;8.48;;;1.67;;
22332;SDS011;11334;36.986;-121.936;2023-02-07T01:05:25;6.05;;;2.60;;
22332;SDS011;11334;36.986;-121.936;2023-02-07T01:07:51;8.93;;;2.40;;
22332;SDS011;11334;36.986;-121.936;2023-02-07T01:10:18;9.63;;;2.45;;
22332;SDS011;11334;36.986;-121.936;2023-02-07T01:12:45;9.30;;;2.22;;
22332;SDS011;11334;36.986;-121.936;2023-02-07T01:15:11;14.43;;;2.35;;
22332;SDS011;11334;36.986;-121.936;2023-02-07T01:17:40;8.00;;;2.47;;
22332;SDS011;11334;36.986;-121.936;2023-02-07T01:20:06;6.95;;;2.63;;
22332;SDS011;11334;36.986;-121.936;2023-02-07T01:22:33;8.63;;;2.28;;
22332;SDS011;11334;36.986;-121.936;2023-02-07T01:25:00;13.73;;;3.05;;
22332;SDS011;11334;36.986;-121.936;2023-02-07T01:27:27;9.18;;;2.72;;
22332;SDS011;11334;36.986;-121.936;2023-02-07T01:29:53;9.25;;;2.33;;
22332;SDS011;11334;36.986;-121.936;2023-02-07T01:32:19;11.85;;;2.50;;
22332;SDS011;11334;36.986;-121.936;2023-02-07T01:34:45;11.20;;;3.00;;
22332;SDS011;11334;36.986;-121.936;2023-02-07T01:37:12;13.45;;;3.45;;
22332;SDS011;11334;36.986;-121.936;2023-02-07T01:39:38;9.75;;;2.95;;
22332;SDS011;11334;36.986;-121.936;2023-02-07T01:42:04;7.90;;;2.42;;
22332;SDS011;11334;36.986;-121.936;2023-02-07T01:47:00;12.00;;;2.05;;
22332;SDS011;11334;36.986;-121.936;2023-02-07T01:49:27;5.47;;;1.95;;
22332;SDS011;11334;36.986;-121.936;2023-02-07T01:51:58;9.05;;;2.42;;
22332;SDS011;11334;36.986;-121.936;2023-02-07T01:54:28;8.85;;;3.17;;
22332;SDS011;11334;36.986;-121.936;2023-02-07T01:56:59;6.00;;;2.63;;
22332;SDS011;11334;36.986;-121.936;2023-02-07T01:59:29;8.13;;;2.30;;
22332;SDS011;11334;36.986;-121.936;2023-02-07T02:01:58;8.13;;;2.10;;
22332;SDS011;11334;36.986;-121.936;2023-02-07T02:04:27;8.65;;;2.35;;
22332;SDS011;11334;36.986;-121.936;2023-02-07T02:06:53;8.40;;;2.70;;
22332;SDS011;11334;36.986;-121.936;2023-02-07T02:09:21;6.88;;;2.78;;
22332;SDS011;11334;36.986;-121.936;2023-02-07T02:17:56;4.07;;;2.53;;
22332;SDS011;11334;36.986;-121.936;2023-02-07T02:20:55;6.32;;;2.70;;
22332;SDS011;11334;36.986;-121.936;2023-02-07T02:40:26;4.88;;;3.08;;
22332;SDS011;11334;36.986;-121.936;2023-02-07T02:43:03;9.05;;;3.60;;
22332;SDS011;11334;36.986;-121.936;2023-02-07T02:45:39;7.25;;;3.33;;
22332;SDS011;11334;36.986;-121.936;2023-02-07T02:48:10;8.82;;;3.78;;
22332;SDS011;11334;36.986;-121.936;2023-02-07T02:50:37;5.90;;;2.95;;
22332;SDS011;11334;36.986;-121.936;2023-02-07T02:53:04;10.05;;;2.67;;
22332;SDS011;11334;36.986;-121.936;2023-02-07T03:03:29;7.57;;;3.20;;
22332;SDS011;11334;36.986;-121.936;2023-02-07T03:09:01;9.60;;;3.03;;
22332;SDS011;11334;36.986;-121.936;2023-02-07T03:11:38;8.10;;;3.33;;
22332;SDS011;11334;36.986;-121.936;2023-02-07T03:14:18;8.73;;;3.60;;
22332;SDS011;11334;36.986;-121.936;2023-02-07T03:16:56;5.50;;;3.25;;
22332;SDS011;11334;36.986;-121.936;2023-02-07T03:19:52;6.53;;;2.95;;
22332;SDS011;11334;36.986;-121.936;2023-02-07T03:22:21;10.48;;;4.18;;
22332;SDS011;11334;36.986;-121.936;2023-02-07T03:24:51;8.20;;;4.50;;
22332;SDS011;11334;36.986;-121.936;2023-02-07T03:27:21;7.80;;;4.38;;
22332;SDS011;11334;36.986;-121.936;2023-02-07T03:29:49;8.18;;;4.72;;
22332;SDS011;11334;36.986;-121.936;2023-02-07T03:32:28;7.85;;;4.00;;
22332;SDS011;11334;36.986;-121.936;2023-02-07T03:38:08;5.45;;;2.05;;
22332;SDS011;11334;36.986;-121.936;2023-02-07T03:40:38;4.82;;;2.03;;
22332;SDS011;11334;36.986;-121.936;2023-02-07T03:43:12;7.57;;;2.47;;
22332;SDS011;11334;36.986;-121.936;2023-02-07T03:45:40;4.63;;;2.03;;
22332;SDS011;11334;36.986;-121.936;2023-02-07T03:48:07;6.85;;;2.30;;
22332;SDS011;11334;36.986;-121.936;2023-02-07T03:50:33;5.82;;;2.15;;
22332;SDS011;11334;36.986;-121.936;2023-02-07T03:52:59;4.18;;;2.28;;
22332;SDS011;11334;36.986;-121.936;2023-02-07T03:55:26;7.53;;;2.70;;
22332;SDS011;11334;36.986;-121.936;2023-02-07T03:57:53;8.35;;;2.42;;
22332;SDS011;11334;36.986;-121.936;2023-02-07T04:00:19;5.25;;;2.20;;
22332;SDS011;11334;36.986;-121.936;2023-02-07T04:02:45;3.40;;;1.77;;
22332;SDS011;11334;36.986;-121.936;2023-02-07T04:05:14;5.88;;;2.30;;
22332;SDS011;11334;36.986;-121.936;2023-02-07T04:07:41;3.00;;;2.17;;
22332;SDS011;11334;36.986;-121.936;2023-02-07T04:10:08;4.93;;;2.03;;
22332;SDS011;11334;36.986;-121.936;2023-02-07T04:12:35;5.38;;;2.10;;
22332;SDS011;11334;36.986;-121.936;2023-02-07T04:15:02;4.68;;;2.00;;
22332;SDS011;11334;36.986;-121.936;2023-02-07T04:17:30;3.45;;;1.75;;
22332;SDS011;11334;36.986;-121.936;2023-02-07T04:19:57;3.17;;;1.38;;
22332;SDS011;11334;36.986;-121.936;2023-02-07T04:22:26;3.85;;;1.80;;
22332;SDS011;11334;36.986;-121.936;2023-02-07T04:24:53;4.50;;;1.92;;
22332;SDS011;11334;36.986;-121.936;2023-02-07T04:27:19;6.13;;;1.48;;
22332;SDS011;11334;36.986;-121.936;2023-02-07T04:29:45;3.70;;;1.33;;
22332;SDS011;11334;36.986;-121.936;2023-02-07T04:32:11;6.25;;;1.60;;
22332;SDS011;11334;36.986;-121.936;2023-02-07T04:34:38;2.30;;;1.30;;
22332;SDS011;11334;36.986;-121.936;2023-02-07T04:37:04;3.20;;;1.60;;
22332;SDS011;11334;36.986;-121.936;2023-02-07T04:39:30;3.47;;;1.58;;
22332;SDS011;11334;36.986;-121.936;2023-02-07T04:41:56;4.00;;;1.70;;
22332;SDS011;11334;36.986;-121.936;2023-02-07T04:44:23;1.77;;;1.48;;
22332;SDS011;11334;36.986;-121.936;2023-02-07T04:46:49;4.13;;;1.38;;
22332;SDS011;11334;36.986;-121.936;2023-02-07T04:49:16;4.47;;;1.45;;
22332;SDS011;11334;36.986;-121.936;2023-02-07T04:51:42;3.83;;;2.35;;
22332;SDS011;11334;36.986;-121.936;2023-02-07T04:54:08;4.32;;;1.90;;
22332;SDS011;11334;36.986;-121.936;2023-02-07T04:56:35;4.07;;;2.13;;
22332;SDS011;11334;36.986;-121.936;2023-02-07T04:59:01;2.83;;;2.00;;
22332;SDS011;11334;36.986;-121.936;2023-02-07T05:01:28;3.13;;;1.73;;
22332;SDS011;11334;36.986;-121.936;2023-02-07T05:03:54;7.60;;;2.55;;
22332;SDS011;11334;36.986;-121.936;2023-02-07T05:06:20;4.00;;;2.83;;
22332;SDS011;11334;36.986;-121.936;2023-02-07T05:08:46;5.13;;;2.53;;
22332;SDS011;11334;36.986;-121.936;2023-02-07T05:11:13;4.78;;;1.90;;
22332;SDS011;11334;36.986;-121.936;2023-02-07T05:13:39;4.60;;;1.80;;
22332;SDS011;11334;36.986;-121.936;2023-02-07T05:16:05;1.50;;;1.23;;
22332;SDS011;11334;36.986;-121.936;2023-02-07T05:18:32;2.33;;;1.60;;
22332;SDS011;11334;36.986;-121.936;2023-02-07T05:20:58;4.13;;;2.13;;
22332;SDS011;11334;36.986;-121.936;2023-02-07T05:23:24;2.75;;;1.70;;
22332;SDS011;11334;36.986;-121.936;2023-02-07T05:25:51;1.83;;;1.40;;
22332;SDS011;11334;36.986;-121.936;2023-02-07T05:28:17;2.92;;;1.30;;
22332;SDS011;11334;36.986;-121.936;2023-02-07T05:30:43;2.80;;;1.60;;
22332;SDS011;11334;36.986;-121.936;2023-02-07T05:33:10;2.50;;;1.73;;
22332;SDS011;11334;36.986;-121.936;2023-02-07T05:35:40;1.77;;;1.48;;
22332;SDS011;11334;36.986;-121.936;2023-02-07T05:38:11;3.80;;;1.77;;
22332;SDS011;11334;36.986;-121.936;2023-02-07T05:40:39;3.35;;;1.90;;
22332;SDS011;11334;36.986;-121.936;2023-02-07T05:43:07;2.22;;;1.58;;
22332;SDS011;11334;36.986;-121.936;2023-02-07T05:45:34;3.47;;;1.55;;
22332;SDS011;11334;36.986;-121.936;2023-02-07T05:48:01;1.25;;;1.15;;
22332;SDS011;11334;36.986;-121.936;2023-02-07T05:50:27;3.47;;;1.73;;
22332;SDS011;11334;36.986;-121.936;2023-02-07T05:52:54;3.72;;;1.60;;
22332;SDS011;11334;36.986;-121.936;2023-02-07T05:55:20;5.10;;;1.60;;
22332;SDS011;11334;36.986;-121.936;2023-02-07T05:57:46;3.63;;;1.48;;
22332;SDS011;11334;36.986;-121.936;2023-02-07T06:00:13;2.83;;;1.20;;
22332;SDS011;11334;36.986;-121.936;2023-02-07T06:02:44;3.95;;;1.50;;
22332;SDS011;11334;36.986;-121.936;2023-02-07T06:05:12;1.67;;;1.48;;
22332;SDS011;11334;36.986;-121.936;2023-02-07T06:07:39;3.92;;;1.40;;
22332;SDS011;11334;36.986;-121.936;2023-02-07T06:10:06;2.63;;;1.80;;
22332;SDS011;11334;36.986;-121.936;2023-02-07T06:12:33;2.90;;;1.98;;
22332;SDS011;11334;36.986;-121.936;2023-02-07T06:14:59;2.45;;;1.60;;
22332;SDS011;11334;36.986;-121.936;2023-02-07T06:17:26;3.20;;;2.13;;
22332;SDS011;11334;36.986;-121.936;2023-02-07T06:19:52;2.45;;;1.45;;
22332;SDS011;11334;36.986;-121.936;2023-02-07T06:22:18;2.85;;;1.40;;
22332;SDS011;11334;36.986;-121.936;2023-02-07T06:24:45;2.05;;;1.23;;
22332;SDS011;11334;36.986;-121.936;2023-02-07T06:27:11;2.05;;;0.90;;
22332;SDS011;11334;36.986;-121.936;2023-02-07T06:29:40;3.88;;;2.00;;
22332;SDS011;11334;36.986;-121.936;2023-02-07T06:32:06;8.35;;;5.30;;
22332;SDS011;11334;36.986;-121.936;2023-02-07T06:34:32;2.05;;;1.40;;
22332;SDS011;11334;36.986;-121.936;2023-02-07T06:36:59;4.95;;;1.27;;
22332;SDS011;11334;36.986;-121.936;2023-02-07T06:39:25;1.58;;;1.30;;
22332;SDS011;11334;36.986;-121.936;2023-02-07T06:41:51;1.45;;;1.10;;
22332;SDS011;11334;36.986;-121.936;2023-02-07T06:44:17;2.42;;;1.40;;
22332;SDS011;11334;36.986;-121.936;2023-02-07T06:46:44;2.17;;;1.20;;
22332;SDS011;11334;36.986;-121.936;2023-02-07T06:49:10;5.40;;;1.60;;
22332;SDS011;11334;36.986;-121.936;2023-02-07T06:51:36;4.30;;;1.58;;
22332;SDS011;11334;36.986;-121.936;2023-02-07T06:54:03;1.55;;;1.20;;
22332;SDS011;11334;36.986;-121.936;2023-02-07T06:56:33;2.45;;;1.02;;
22332;SDS011;11334;36.986;-121.936;2023-02-07T06:59:00;4.25;;;1.50;;
22332;SDS011;11334;36.986;-121.936;2023-02-07T07:01:27;1.95;;;1.20;;
22332;SDS011;11334;36.986;-121.936;2023-02-07T07:03:53;3.10;;;1.33;;
22332;SDS011;11334;36.986;-121.936;2023-02-07T07:06:19;3.67;;;1.45;;
22332;SDS011;11334;36.986;-121.936;2023-02-07T07:08:46;4.70;;;1.20;;
22332;SDS011;11334;36.986;-121.936;2023-02-07T07:11:12;3.72;;;1.50;;
22332;SDS011;11334;36.986;-121.936;2023-02-07T07:13:38;3.25;;;1.33;;
22332;SDS011;11334;36.986;-121.936;2023-02-07T07:16:05;3.03;;;1.60;;
22332;SDS011;11334;36.986;-121.936;2023-02-07T07:18:31;2.08;;;1.50;;
22332;SDS011;11334;36.986;-121.936;2023-02-07T07:20:57;5.05;;;1.65;;
22332;SDS011;11334;36.986;-121.936;2023-02-07T07:23:23;2.35;;;1.20;;
22332;SDS011;11334;36.986;-121.936;2023-02-07T07:25:50;7.25;;;1.60;;
22332;SDS011;11334;36.986;-121.936;2023-02-07T07:28:17;3.78;;;1.38;;
22332;SDS011;11334;36.986;-121.936;2023-02-07T07:30:43;3.63;;;1.60;;
22332;SDS011;11334;36.986;-121.936;2023-02-07T07:33:09;5.43;;;2.15;;
22332;SDS011;11334;36.986;-121.936;2023-02-07T07:35:35;5.88;;;1.52;;
22332;SDS011;11334;36.986;-121.936;2023-02-07T07:38:02;1.88;;;1.45;;
22332;SDS011;11334;36.986;-121.936;2023-02-07T07:40:28;3.13;;;1.55;;
22332;SDS011;11334;36.986;-121.936;2023-02-07T07:42:54;2.00;;;1.58;;
22332;SDS011;11334;36.986;-121.936;2023-02-07T07:45:20;5.13;;;1.67;;
22332;SDS011;11334;36.986;-121.936;2023-02-07T07:47:47;3.58;;;2.03;;
22332;SDS011;11334;36.986;-121.936;2023-02-07T07:50:13;1.95;;;1.33;;
22332;SDS011;11334;36.986;-121.936;2023-02-07T07:52:39;4.18;;;1.85;;
22332;SDS011;11334;36.986;-121.936;2023-02-07T07:55:07;3.05;;;1.30;;
22332;SDS011;11334;36.986;-121.936;2023-02-07T07:57:34;3.63;;;1.50;;
22332;SDS011;11334;36.986;-121.936;2023-02-07T08:00:01;5.40;;;1.50;;
22332;SDS011;11334;36.986;-121.936;2023-02-07T08:02:28;3.97;;;1.30;;
22332;SDS011;11334;36.986;-121.936;2023-02-07T08:04:54;3.25;;;1.73;;
22332;SDS011;11334;36.986;-121.936;2023-02-07T08:07:21;4.90;;;1.50;;
22332;SDS011;11334;36.986;-121.936;2023-02-07T08:09:49;5.07;;;1.73;;
22332;SDS011;11334;36.986;-121.936;2023-02-07T08:12:16;4.45;;;2.03;;
22332;SDS011;11334;36.986;-121.936;2023-02-07T08:14:42;5.00;;;1.77;;
22332;SDS011;11334;36.986;-121.936;2023-02-07T08:17:08;3.95;;;1.55;;
22332;SDS011;11334;36.986;-121.936;2023-02-07T08:19:34;4.25;;;1.65;;
22332;SDS011;11334;36.986;-121.936;2023-02-07T08:22:02;4.30;;;1.55;;
22332;SDS011;11334;36.986;-121.936;2023-02-07T08:24:28;3.55;;;1.90;;
22332;SDS011;11334;36.986;-121.936;2023-02-07T08:26:55;2.95;;;1.48;;
22332;SDS011;11334;36.986;-121.936;2023-02-07T08:29:21;3.00;;;1.30;;
22332;SDS011;11334;36.986;-121.936;2023-02-07T08:31:47;2.47;;;1.50;;
22332;SDS011;11334;36.986;-121.936;2023-02-07T08:34:14;3.33;;;1.45;;
22332;SDS011;11334;36.986;-121.936;2023-02-07T08:36:40;5.05;;;1.77;;
22332;SDS011;11334;36.986;-121.936;2023-02-07T08:39:06;5.78;;;1.50;;
22332;SDS011;11334;36.986;-121.936;2023-02-07T08:41:32;3.05;;;1.55;;
22332;SDS011;11334;36.986;-121.936;2023-02-07T08:43:59;7.70;;;1.80;;
22332;SDS011;11334;36.986;-121.936;2023-02-07T08:46:25;7.25;;;1.95;;
22332;SDS011;11334;36.986;-121.936;2023-02-07T08:48:54;2.88;;;1.48;;
22332;SDS011;11334;36.986;-121.936;2023-02-07T08:51:20;3.70;;;1.55;;
22332;SDS011;11334;36.986;-121.936;2023-02-07T08:53:47;2.47;;;1.17;;
22332;SDS011;11334;36.986;-121.936;2023-02-07T08:56:13;4.63;;;1.80;;
22332;SDS011;11334;36.986;-121.936;2023-02-07T08:58:39;4.07;;;1.73;;
22332;SDS011;11334;36.986;-121.936;2023-02-07T09:01:06;7.95;;;1.92;;
22332;SDS011;11334;36.986;-121.936;2023-02-07T09:03:36;4.63;;;1.30;;
22332;SDS011;11334;36.986;-121.936;2023-02-07T09:06:03;6.82;;;1.40;;
22332;SDS011;11334;36.986;-121.936;2023-02-07T09:08:30;5.45;;;1.60;;
22332;SDS011;11334;36.986;-121.936;2023-02-07T09:10:57;4.45;;;1.73;;
22332;SDS011;11334;36.986;-121.936;2023-02-07T09:13:23;7.03;;;1.55;;
22332;SDS011;11334;36.986;-121.936;2023-02-07T09:15:56;3.55;;;1.58;;
22332;SDS011;11334;36.986;-121.936;2023-02-07T09:18:23;5.65;;;1.60;;
22332;SDS011;11334;36.986;-121.936;2023-02-07T09:20:51;3.13;;;1.30;;
22332;SDS011;11334;36.986;-121.936;2023-02-07T09:23:17;4.85;;;1.52;;
22332;SDS011;11334;36.986;-121.936;2023-02-07T09:25:47;4.93;;;1.48;;
22332;SDS011;11334;36.986;-121.936;2023-02-07T09:28:15;1.90;;;1.00;;
22332;SDS011;11334;36.986;-121.936;2023-02-07T09:30:43;2.33;;;1.38;;
22332;SDS011;11334;36.986;-121.936;2023-02-07T09:33:11;4.63;;;1.42;;
22332;SDS011;11334;36.986;-121.936;2023-02-07T09:35:39;8.02;;;1.83;;
22332;SDS011;11334;36.986;-121.936;2023-02-07T09:38:14;4.28;;;1.55;;
22332;SDS011;11334;36.986;-121.936;2023-02-07T09:40:43;3.17;;;0.93;;
22332;SDS011;11334;36.986;-121.936;2023-02-07T09:45:46;6.32;;;1.50;;
22332;SDS011;11334;36.986;-121.936;2023-02-07T09:48:20;3.45;;;1.48;;
22332;SDS011;11334;36.986;-121.936;2023-02-07T09:50:56;6.72;;;1.85;;
22332;SDS011;11334;36.986;-121.936;2023-02-07T09:53:30;3.90;;;1.60;;
22332;SDS011;11334;36.986;-121.936;2023-02-07T09:56:05;4.93;;;1.67;;
22332;SDS011;11334;36.986;-121.936;2023-02-07T10:01:32;9.18;;;2.30;;
22332;SDS011;11334;36.986;-121.936;2023-02-07T10:06:48;2.95;;;1.80;;
22332;SDS011;11334;36.986;-121.936;2023-02-07T10:09:30;5.65;;;1.73;;
22332;SDS011;11334;36.986;-121.936;2023-02-07T10:12:12;5.18;;;1.20;;
22332;SDS011;11334;36.986;-121.936;2023-02-07T10:14:51;4.53;;;1.88;;
22332;SDS011;11334;36.986;-121.936;2023-02-07T10:21:04;3.80;;;1.50;;
22332;SDS011;11334;36.986;-121.936;2023-02-07T10:31:38;6.05;;;1.42;;
22332;SDS011;11334;36.986;-121.936;2023-02-07T10:34:13;3.22;;;1.38;;
22332;SDS011;11334;36.986;-121.936;2023-02-07T10:36:44;7.22;;;1.60;;
22332;SDS011;11334;36.986;-121.936;2023-02-07T10:39:25;4.82;;;1.88;;
22332;SDS011;11334;36.986;-121.936;2023-02-07T10:41:54;6.10;;;1.50;;
22332;SDS011;11334;36.986;-121.936;2023-02-07T10:44:21;3.10;;;1.58;;
22332;SDS011;11334;36.986;-121.936;2023-02-07T10:46:54;5.28;;;1.45;;
22332;SDS011;11334;36.986;-121.936;2023-02-07T10:49:27;5.07;;;1.95;;
22332;SDS011;11334;36.986;-121.936;2023-02-07T10:51:56;4.55;;;1.25;;
22332;SDS011;11334;36.986;-121.936;2023-02-07T10:54:27;6.45;;;1.98;;
22332;SDS011;11334;36.986;-121.936;2023-02-07T10:56:55;6.03;;;1.75;;
22332;SDS011;11334;36.986;-121.936;2023-02-07T11:04:52;5.88;;;1.67;;
22332;SDS011;11334;36.986;-121.936;2023-02-07T11:07:19;4.68;;;1.27;;
22332;SDS011;11334;36.986;-121.936;2023-02-07T11:09:47;4.10;;;1.80;;
22332;SDS011;11334;36.986;-121.936;2023-02-07T11:12:16;6.20;;;1.60;;
22332;SDS011;11334;36.986;-121.936;2023-02-07T11:14:58;4.20;;;1.60;;
22332;SDS011;11334;36.986;-121.936;2023-02-07T11:17:26;3.28;;;1.45;;
22332;SDS011;11334;36.986;-121.936;2023-02-07T11:19:52;5.57;;;1.40;;
22332;SDS011;11334;36.986;-121.936;2023-02-07T11:22:20;4.30;;;1.23;;
22332;SDS011;11334;36.986;-121.936;2023-02-07T11:24:50;4.30;;;1.48;;
22332;SDS011;11334;36.986;-121.936;2023-02-07T11:27:24;6.57;;;1.40;;
22332;SDS011;11334;36.986;-121.936;2023-02-07T11:30:04;5.80;;;1.23;;
22332;SDS011;11334;36.986;-121.936;2023-02-07T11:32:41;3.08;;;1.10;;
22332;SDS011;11334;36.986;-121.936;2023-02-07T11:35:15;2.53;;;1.20;;
22332;SDS011;11334;36.986;-121.936;2023-02-07T11:37:48;6.10;;;1.33;;
22332;SDS011;11334;36.986;-121.936;2023-02-07T11:43:17;4.07;;;1.10;;
22332;SDS011;11334;36.986;-121.936;2023-02-07T11:45:47;4.53;;;1.17;;
22332;SDS011;11334;36.986;-121.936;2023-02-07T11:48:20;8.82;;;1.88;;
22332;SDS011;11334;36.986;-121.936;2023-02-07T11:50:54;5.38;;;1.85;;
22332;SDS011;11334;36.986;-121.936;2023-02-07T11:56:22;4.20;;;2.08;;
22332;SDS011;11334;36.986;-121.936;2023-02-07T11:58:49;1.45;;;1.17;;
22332;SDS011;11334;36.986;-121.936;2023-02-07T12:01:18;5.40;;;1.63;;
22332;SDS011;11334;36.986;-121.936;2023-02-07T12:03:51;3.40;;;0.70;;
22332;SDS011;11334;36.986;-121.936;2023-02-07T12:06:28;3.35;;;1.15;;
22332;SDS011;11334;36.986;-121.936;2023-02-07T12:08:58;2.35;;;1.23;;
22332;SDS011;11334;36.986;-121.936;2023-02-07T12:11:29;1.92;;;1.02;;
22332;SDS011;11334;36.986;-121.936;2023-02-07T12:14:18;6.72;;;1.83;;
22332;SDS011;11334;36.986;-121.936;2023-02-07T12:16:53;2.85;;;1.25;;
22332;SDS011;11334;36.986;-121.936;2023-02-07T12:22:10;7.25;;;1.27;;
22332;SDS011;11334;36.986;-121.936;2023-02-07T12:24:40;3.60;;;1.60;;
22332;SDS011;11334;36.986;-121.936;2023-02-07T12:27:15;3.30;;;1.60;;
22332;SDS011;11334;36.986;-121.936;2023-02-07T12:35:27;3.72;;;1.50;;
22332;SDS011;11334;36.986;-121.936;2023-02-07T12:43:59;3.10;;;1.10;;
22332;SDS011;11334;36.986;-121.936;2023-02-07T12:53:03;3.13;;;1.10;;
22332;SDS011;11334;36.986;-121.936;2023-02-07T13:07:25;7.60;;;1.30;;
22332;SDS011;11334;36.986;-121.936;2023-02-07T13:15:09;2.75;;;1.05;;
22332;SDS011;11334;36.986;-121.936;2023-02-07T13:23:04;1.15;;;0.98;;
22332;SDS011;11334;36.986;-121.936;2023-02-07T13:25:39;1.50;;;0.90;;
22332;SDS011;11334;36.986;-121.936;2023-02-07T13:28:25;3.38;;;1.50;;
22332;SDS011;11334;36.986;-121.936;2023-02-07T13:31:05;5.45;;;1.25;;
22332;SDS011;11334;36.986;-121.936;2023-02-07T13:33:36;1.67;;;0.95;;
22332;SDS011;11334;36.986;-121.936;2023-02-07T13:36:29;2.20;;;1.13;;
22332;SDS011;11334;36.986;-121.936;2023-02-07T13:50:10;4.10;;;1.48;;
22332;SDS011;11334;36.986;-121.936;2023-02-07T13:52:59;1.98;;;1.10;;
22332;SDS011;11334;36.986;-121.936;2023-02-07T13:55:29;5.45;;;1.30;;
22332;SDS011;11334;36.986;-121.936;2023-02-07T13:57:59;4.43;;;1.20;;
22332;SDS011;11334;36.986;-121.936;2023-02-07T14:06:24;3.92;;;1.50;;
22332;SDS011;11334;36.986;-121.936;2023-02-07T14:11:34;3.50;;;1.30;;
22332;SDS011;11334;36.986;-121.936;2023-02-07T14:16:56;3.58;;;1.55;;
22332;SDS011;11334;36.986;-121.936;2023-02-07T14:32:26;4.68;;;1.55;;
22332;SDS011;11334;36.986;-121.936;2023-02-07T14:35:02;3.80;;;1.83;;
22332;SDS011;11334;36.986;-121.936;2023-02-07T14:37:45;2.53;;;1.50;;
22332;SDS011;11334;36.986;-121.936;2023-02-07T14:45:58;7.18;;;1.40;;
22332;SDS011;11334;36.986;-121.936;2023-02-07T14:54:05;4.85;;;1.48;;
22332;SDS011;11334;36.986;-121.936;2023-02-07T14:56:48;6.78;;;1.67;;
22332;SDS011;11334;36.986;-121.936;2023-02-07T14:59:31;6.20;;;2.55;;
22332;SDS011;11334;36.986;-121.936;2023-02-07T15:07:42;8.18;;;1.50;;
22332;SDS011;11334;36.986;-121.936;2023-02-07T15:10:22;4.30;;;1.42;;
22332;SDS011;11334;36.986;-121.936;2023-02-07T15:12:53;7.72;;;1.83;;
22332;SDS011;11334;36.986;-121.936;2023-02-07T15:17:54;5.40;;;1.60;;
22332;SDS011;11334;36.986;-121.936;2023-02-07T15:20:32;3.58;;;1.80;;
22332;SDS011;11334;36.986;-121.936;2023-02-07T15:23:01;4.30;;;1.83;;
22332;SDS011;11334;36.986;-121.936;2023-02-07T15:25:31;4.50;;;1.80;;
22332;SDS011;11334;36.986;-121.936;2023-02-07T15:28:03;4.50;;;2.35;;
22332;SDS011;11334;36.986;-121.936;2023-02-07T15:31:05;5.32;;;1.85;;
22332;SDS011;11334;36.986;-121.936;2023-02-07T15:33:36;8.30;;;1.92;;
22332;SDS011;11334;36.986;-121.936;2023-02-07T15:36:05;4.47;;;1.70;;
22332;SDS011;11334;36.986;-121.936;2023-02-07T15:38:50;4.40;;;1.90;;
22332;SDS011;11334;36.986;-121.936;2023-02-07T15:41:17;4.85;;;1.65;;
22332;SDS011;11334;36.986;-121.936;2023-02-07T15:44:05;4.20;;;1.90;;
22332;SDS011;11334;36.986;-121.936;2023-02-07T15:46:52;4.75;;;1.98;;
22332;SDS011;11334;36.986;-121.936;2023-02-07T15:51:59;4.90;;;1.83;;
22332;SDS011;11334;36.986;-121.936;2023-02-07T15:54:45;4.20;;;1.60;;
22332;SDS011;11334;36.986;-121.936;2023-02-07T15:57:21;5.05;;;1.50;;
22332;SDS011;11334;36.986;-121.936;2023-02-07T15:59:52;6.28;;;1.92;;
22332;SDS011;11334;36.986;-121.936;2023-02-07T16:02:30;8.10;;;1.70;;
22332;SDS011;11334;36.986;-121.936;2023-02-07T16:05:06;5.55;;;1.85;;
22332;SDS011;11334;36.986;-121.936;2023-02-07T16:07:37;5.35;;;1.92;;
22332;SDS011;11334;36.986;-121.936;2023-02-07T16:13:31;5.53;;;1.58;;
22332;SDS011;11334;36.986;-121.936;2023-02-07T16:16:31;5.05;;;1.80;;
22332;SDS011;11334;36.986;-121.936;2023-02-07T16:18:49;4.22;;;1.90;;
22332;SDS011;11334;36.986;-121.936;2023-02-07T16:23:42;5.72;;;2.05;;
22332;SDS011;11334;36.986;-121.936;2023-02-07T16:26:10;5.30;;;1.67;;
22332;SDS011;11334;36.986;-121.936;2023-02-07T16:28:37;7.32;;;1.90;;
22332;SDS011;11334;36.986;-121.936;2023-02-07T16:31:04;6.40;;;1.73;;
22332;SDS011;11334;36.986;-121.936;2023-02-07T16:33:30;4.45;;;2.00;;
22332;SDS011;11334;36.986;-121.936;2023-02-07T16:35:56;4.72;;;1.98;;
22332;SDS011;11334;36.986;-121.936;2023-02-07T16:38:22;9.10;;;2.03;;
22332;SDS011;11334;36.986;-121.936;2023-02-07T16:40:48;6.55;;;2.30;;
22332;SDS011;11334;36.986;-121.936;2023-02-07T16:43:48;6.13;;;2.35;;
22332;SDS011;11334;36.986;-121.936;2023-02-07T16:46:07;5.07;;;1.98;;
22332;SDS011;11334;36.986;-121.936;2023-02-07T16:48:33;5.80;;;2.08;;
22332;SDS011;11334;36.986;-121.936;2023-02-07T16:50:59;8.30;;;2.30;;
22332;SDS011;11334;36.986;-121.936;2023-02-07T16:53:26;11.35;;;2.88;;
22332;SDS011;11334;36.986;-121.936;2023-02-07T16:55:52;5.28;;;2.40;;
22332;SDS011;11334;36.986;-121.936;2023-02-07T16:58:23;8.38;;;2.05;;
22332;SDS011;11334;36.986;-121.936;2023-02-07T17:00:51;9.85;;;2.25;;
22332;SDS011;11334;36.986;-121.936;2023-02-07T17:03:18;8.55;;;2.13;;
22332;SDS011;11334;36.986;-121.936;2023-02-07T17:05:45;9.48;;;2.88;;
22332;SDS011;11334;36.986;-121.936;2023-02-07T17:08:15;12.30;;;2.80;;
22332;SDS011;11334;36.986;-121.936;2023-02-07T17:10:46;15.30;;;4.13;;
22332;SDS011;11334;36.986;-121.936;2023-02-07T17:13:18;11.52;;;3.08;;
22332;SDS011;11334;36.986;-121.936;2023-02-07T17:15:44;17.15;;;3.35;;
22332;SDS011;11334;36.986;-121.936;2023-02-07T17:18:11;13.93;;;4.25;;
22332;SDS011;11334;36.986;-121.936;2023-02-07T17:20:38;12.55;;;3.00;;